Time;durP1;ratioP1;P1;durP2;ratioP2;P2;SDS_P1;SDS_P2;PMS_P1;PMS_P2;Temp;Humidity;BMP_temperature;BMP_pressure;BME280_temperature;BME280_humidity;BME280_pressure;Samples;Min_cycle;Max_cycle;Signal;HPM_P1;HPM_P2
2023/08/19 00:02:15;;;;;;;8.90;8.00;;;;;20.60;97076.00;;;;5027640;28;20590;-86
2023/08/19 00:05:05;;;;;;;9.30;8.27;;;;;20.20;97066.00;;;;5026840;28;20686;-87
2023/08/19 00:07:54;;;;;;;9.73;8.83;;;;;19.90;97076.00;;;;5030593;28;20209;-87
2023/08/19 00:10:43;;;;;;;12.30;9.07;;;;;20.00;97072.00;;;;5010693;28;20216;-87
2023/08/19 00:13:32;;;;;;;11.30;10.17;;;;;20.20;97070.00;;;;5027807;28;20256;-87
2023/08/19 00:16:21;;;;;;;10.67;9.57;;;;;20.30;97063.00;;;;5028841;28;20224;-87
2023/08/19 00:19:12;;;;;;;11.67;9.67;;;;;20.50;97080.00;;;;5028810;28;20582;-86
2023/08/19 00:22:01;;;;;;;11.37;9.93;;;;;20.20;97083.00;;;;5018378;28;20213;-86
2023/08/19 00:24:50;;;;;;;12.17;10.87;;;;;20.30;97077.00;;;;5019131;28;20231;-86
2023/08/19 00:27:39;;;;;;;9.93;8.93;;;;;20.10;97086.00;;;;5015716;28;20215;-86
2023/08/19 00:30:29;;;;;;;9.07;8.17;;;;;19.90;97073.00;;;;5026748;28;20786;-86
2023/08/19 00:33:18;;;;;;;9.70;8.80;;;;;20.00;97077.00;;;;5027953;28;20255;-86
2023/08/19 00:36:08;;;;;;;10.37;9.23;;;;;19.90;97078.00;;;;5022393;28;20205;-86
2023/08/19 00:38:57;;;;;;;21.00;9.47;;;;;20.10;97075.00;;;;5020684;28;20204;-86
2023/08/19 00:41:48;;;;;;;12.87;9.97;;;;;20.00;97067.00;;;;5017442;28;20224;-86
2023/08/19 00:44:37;;;;;;;10.40;9.40;;;;;19.50;97070.00;;;;5020586;28;20220;-86
2023/08/19 00:47:26;;;;;;;10.83;8.97;;;;;19.60;97075.00;;;;5026010;28;20590;-86
2023/08/19 00:50:16;;;;;;;11.67;9.40;;;;;19.30;97061.00;;;;5015719;28;20197;-86
2023/08/19 00:53:07;;;;;;;12.93;9.33;;;;;19.60;97065.00;;;;5022243;28;20209;-86
2023/08/19 00:55:56;;;;;;;10.50;9.40;;;;;19.90;97069.00;;;;5028400;28;20201;-86
2023/08/19 00:58:46;;;;;;;10.40;9.40;;;;;20.10;97069.00;;;;5016594;28;20208;-86
2023/08/19 01:01:35;;;;;;;9.97;8.70;;;;;20.10;97062.00;;;;5028459;28;20571;-86
2023/08/19 01:04:24;;;;;;;11.47;9.47;;;;;19.90;97061.00;;;;5026597;28;20241;-86
2023/08/19 01:07:19;;;;;;;10.47;9.47;;;;;20.10;97066.00;;;;5026808;28;20229;-87
2023/08/19 01:10:13;;;;;;;12.83;9.33;;;;;20.00;97063.00;;;;5022400;28;20214;-87
2023/08/19 01:13:09;;;;;;;10.60;9.50;;;;;20.00;97058.00;;;;5025433;28;20200;-87
2023/08/19 01:16:09;;;;;;;9.77;8.73;;;;;20.00;97055.00;;;;5020520;28;20215;-87
2023/08/19 01:18:59;;;;;;;9.53;8.37;;;;;20.20;97053.00;;;;5019863;28;20219;-86
2023/08/19 01:21:49;;;;;;;9.33;8.30;;;;;20.00;97057.00;;;;5027166;28;20601;-86
2023/08/19 01:24:40;;;;;;;11.00;9.93;;;;;20.00;97048.00;;;;5020227;28;20221;-87
2023/08/19 01:27:29;;;;;;;13.27;8.57;;;;;20.20;97053.00;;;;5025561;28;20237;-86
2023/08/19 01:30:18;;;;;;;11.53;9.60;;;;;20.20;97050.00;;;;5026239;28;20761;-86
2023/08/19 01:33:07;;;;;;;9.50;8.53;;;;;20.20;97053.00;;;;5027722;28;20433;-85
2023/08/19 01:36:04;;;;;;;9.90;8.60;;;;;19.80;97058.00;;;;5021144;28;20194;-86
2023/08/19 01:39:00;;;;;;;9.37;8.37;;;;;19.80;97053.00;;;;5019109;28;20213;-85
2023/08/19 01:41:51;;;;;;;9.27;8.37;;;;;19.90;97064.00;;;;5016143;28;20679;-86
2023/08/19 01:44:41;;;;;;;10.40;8.67;;;;;20.00;97058.00;;;;5019385;28;20614;-86
2023/08/19 01:47:30;;;;;;;10.70;9.23;;;;;20.10;97047.00;;;;5024608;28;20231;-86
2023/08/19 01:50:19;;;;;;;9.37;8.47;;;;;20.10;97043.00;;;;5023742;28;20208;-86
2023/08/19 01:53:08;;;;;;;14.93;9.23;;;;;19.90;97049.00;;;;5026974;28;20201;-85
2023/08/19 01:55:57;;;;;;;11.47;10.30;;;;;19.70;97045.00;;;;5019041;28;20212;-86
2023/08/19 01:58:48;;;;;;;13.47;9.93;;;;;19.70;97055.00;;;;5015350;28;20205;-86
2023/08/19 02:01:37;;;;;;;13.00;9.17;;;;;19.70;97054.00;;;;5026501;28;20683;-86
2023/08/19 02:04:26;;;;;;;10.63;9.27;;;;;19.50;97054.00;;;;5024774;28;20236;-86
2023/08/19 02:07:15;;;;;;;10.77;9.67;;;;;19.60;97040.00;;;;5025998;28;20217;-86
2023/08/19 02:10:05;;;;;;;11.87;10.23;;;;;19.30;97041.00;;;;5010480;28;20683;-85
2023/08/19 02:12:54;;;;;;;14.53;9.63;;;;;19.20;97060.00;;;;5021539;28;20224;-85
2023/08/19 02:15:45;;;;;;;11.70;9.57;;;;;19.60;97052.00;;;;5010267;28;20221;-86
2023/08/19 02:18:34;;;;;;;10.03;9.03;;;;;19.40;97057.00;;;;5018797;28;20283;-85
2023/08/19 02:21:23;;;;;;;12.87;10.60;;;;;19.40;97054.00;;;;5016660;28;20206;-86
2023/08/19 02:24:12;;;;;;;9.07;8.17;;;;;19.60;97055.00;;;;5024058;28;20232;-86
2023/08/19 02:27:02;;;;;;;9.40;8.50;;;;;19.60;97071.00;;;;5017627;28;20221;-86
2023/08/19 02:29:51;;;;;;;11.40;8.87;;;;;19.70;97061.00;;;;5026008;28;20279;-86
2023/08/19 02:32:42;;;;;;;9.77;8.70;;;;;19.60;97054.00;;;;5012512;28;20212;-86
2023/08/19 02:35:31;;;;;;;13.23;9.17;;;;;19.50;97062.00;;;;5025837;28;20255;-86
2023/08/19 02:38:20;;;;;;;9.90;8.90;;;;;19.00;97068.00;;;;5024213;28;20216;-87
2023/08/19 02:41:10;;;;;;;13.00;9.97;;;;;18.70;97070.00;;;;5026492;28;20209;-86
2023/08/19 02:43:59;;;;;;;10.80;9.27;;;;;18.80;97069.00;;;;5025325;28;20225;-86
2023/08/19 02:46:48;;;;;;;17.20;9.23;;;;;19.00;97059.00;;;;5015141;28;20240;-87
2023/08/19 02:49:38;;;;;;;10.63;9.17;;;;;19.30;97069.00;;;;5020201;28;20206;-86
2023/08/19 02:52:28;;;;;;;14.87;10.63;;;;;19.30;97075.00;;;;5025060;28;20218;-86
2023/08/19 02:55:17;;;;;;;12.13;9.73;;;;;19.10;97069.00;;;;5024409;28;20233;-86
2023/08/19 02:58:07;;;;;;;18.67;10.33;;;;;19.30;97066.00;;;;5027393;28;20212;-86
2023/08/19 03:00:56;;;;;;;10.53;9.43;;;;;19.50;97072.00;;;;5011635;28;20206;-86
2023/08/19 03:03:46;;;;;;;11.23;10.13;;;;;19.60;97074.00;;;;5015929;28;20233;-86
2023/08/19 03:06:36;;;;;;;11.33;10.10;;;;;19.60;97073.00;;;;5025262;28;20228;-86
2023/08/19 03:09:25;;;;;;;13.17;10.27;;;;;19.70;97072.00;;;;5025345;28;20382;-86
2023/08/19 03:12:14;;;;;;;10.63;9.57;;;;;19.40;97071.00;;;;5024859;28;20667;-86
2023/08/19 03:15:04;;;;;;;10.03;8.93;;;;;19.40;97073.00;;;;5021908;28;20225;-86
2023/08/19 03:17:53;;;;;;;11.27;10.03;;;;;19.30;97076.00;;;;5025718;28;20197;-86
2023/08/19 03:20:42;;;;;;;8.67;7.87;;;;;19.40;97084.00;;;;5027085;28;20212;-86
2023/08/19 03:23:33;;;;;;;10.37;9.20;;;;;19.60;97073.00;;;;5015548;28;20340;-86
2023/08/19 03:26:22;;;;;;;10.40;8.97;;;;;19.40;97077.00;;;;5024235;28;20214;-86
2023/08/19 03:29:11;;;;;;;11.30;9.73;;;;;19.40;97076.00;;;;5017497;28;20198;-86
2023/08/19 03:32:00;;;;;;;10.50;9.40;;;;;19.50;97071.00;;;;5021296;28;20212;-86
2023/08/19 03:34:49;;;;;;;10.43;9.10;;;;;19.70;97069.00;;;;5013681;28;20225;-86
2023/08/19 03:37:38;;;;;;;10.07;9.00;;;;;19.70;97067.00;;;;5018256;28;20600;-85
2023/08/19 03:40:29;;;;;;;10.97;9.50;;;;;19.20;97066.00;;;;5024267;28;20201;-86
2023/08/19 03:43:18;;;;;;;11.53;8.73;;;;;19.40;97077.00;;;;5024090;28;20701;-85
2023/08/19 03:46:07;;;;;;;15.57;8.87;;;;;19.20;97073.00;;;;5026482;28;20216;-87
2023/08/19 03:48:56;;;;;;;9.03;8.10;;;;;19.00;97060.00;;;;5009776;28;20201;-86
2023/08/19 03:51:45;;;;;;;10.77;9.13;;;;;18.90;97078.00;;;;5012528;28;20212;-86
2023/08/19 03:54:34;;;;;;;9.80;8.60;;;;;18.70;97072.00;;;;5022607;28;20218;-86
2023/08/19 03:57:25;;;;;;;13.10;9.47;;;;;18.70;97069.00;;;;5024491;28;20201;-87
2023/08/19 04:00:15;;;;;;;9.80;8.63;;;;;18.40;97069.00;;;;5021778;28;20216;-87
2023/08/19 04:03:04;;;;;;;10.47;9.33;;;;;18.60;97062.00;;;;5020901;28;20213;-87
2023/08/19 04:05:53;;;;;;;10.90;9.13;;;;;18.80;97066.00;;;;5026015;28;20212;-87
2023/08/19 04:08:42;;;;;;;11.80;9.47;;;;;18.80;97073.00;;;;5018138;28;20479;-87
2023/08/19 04:11:31;;;;;;;14.10;11.30;;;;;19.00;97069.00;;;;5015558;28;20202;-86
2023/08/19 04:14:22;;;;;;;13.20;11.23;;;;;19.10;97072.00;;;;5020288;28;20227;-86
2023/08/19 04:17:11;;;;;;;17.00;10.47;;;;;19.10;97067.00;;;;5019757;28;20205;-86
2023/08/19 04:20:00;;;;;;;11.70;10.50;;;;;19.20;97062.00;;;;5013923;28;20216;-87
2023/08/19 04:22:49;;;;;;;12.30;9.60;;;;;18.90;97068.00;;;;5017908;28;20251;-86
2023/08/19 04:25:39;;;;;;;12.23;9.83;;;;;18.70;97070.00;;;;5005910;28;20267;-87
2023/08/19 04:28:28;;;;;;;15.80;10.57;;;;;18.40;97053.00;;;;5005363;28;20225;-86
2023/08/19 04:31:19;;;;;;;19.20;11.97;;;;;18.60;97057.00;;;;5017823;28;20679;-87
2023/08/19 04:34:08;;;;;;;10.93;9.17;;;;;18.60;97052.00;;;;5014980;28;20236;-87
2023/08/19 04:36:57;;;;;;;11.83;9.87;;;;;18.80;97052.00;;;;5012990;28;20205;-86
2023/08/19 04:39:46;;;;;;;11.63;10.43;;;;;18.90;97054.00;;;;5007840;28;20206;-86
2023/08/19 04:42:35;;;;;;;11.70;9.87;;;;;18.90;97053.00;;;;5018789;28;20198;-85
2023/08/19 04:45:25;;;;;;;11.63;10.37;;;;;19.00;97047.00;;;;5014944;28;20239;-86
2023/08/19 04:48:16;;;;;;;13.53;9.97;;;;;18.90;97053.00;;;;5018023;28;20225;-85
2023/08/19 04:51:05;;;;;;;13.77;11.43;;;;;19.00;97053.00;;;;5014456;28;20209;-86
2023/08/19 04:53:55;;;;;;;12.27;10.97;;;;;18.90;97061.00;;;;5015826;28;20684;-87
2023/08/19 04:56:44;;;;;;;11.63;10.40;;;;;19.00;97059.00;;;;5021396;28;20213;-89
2023/08/19 04:59:33;;;;;;;13.73;11.53;;;;;18.90;97061.00;;;;5023892;28;20194;-88
2023/08/19 05:02:22;;;;;;;13.60;11.83;;;;;19.30;97058.00;;;;5013453;28;20214;-87
2023/08/19 05:05:12;;;;;;;14.97;11.60;;;;;19.50;97057.00;;;;5118293;27;20599;-70
2023/08/19 05:08:01;;;;;;;16.80;11.50;;;;;19.60;97055.00;;;;5121925;27;20190;-74
2023/08/19 05:10:50;;;;;;;20.53;11.17;;;;;19.50;97062.00;;;;5118632;27;20198;-72
2023/08/19 05:13:39;;;;;;;12.73;10.10;;;;;19.40;97064.00;;;;5144892;27;20221;-74
2023/08/19 05:16:28;;;;;;;11.97;10.20;;;;;19.60;97070.00;;;;5127171;27;20194;-73
2023/08/19 05:19:18;;;;;;;14.77;10.03;;;;;19.60;97071.00;;;;5126197;27;20243;-73
2023/08/19 05:22:09;;;;;;;13.87;9.37;;;;;19.50;97071.00;;;;5119713;27;20198;-73
2023/08/19 05:24:58;;;;;;;10.67;9.23;;;;;19.40;97082.00;;;;5119834;28;20580;-72
2023/08/19 05:27:47;;;;;;;13.20;10.50;;;;;19.30;97080.00;;;;5119837;27;20206;-72
2023/08/19 05:30:36;;;;;;;11.73;10.40;;;;;19.10;97078.00;;;;5124029;27;20220;-71
2023/08/19 05:33:25;;;;;;;11.63;10.00;;;;;19.30;97075.00;;;;5124592;27;20218;-70
2023/08/19 05:36:15;;;;;;;10.77;9.67;;;;;19.60;97083.00;;;;5125469;27;20220;-74
2023/08/19 05:39:06;;;;;;;12.63;11.23;;;;;19.70;97086.00;;;;5138191;27;20204;-72
2023/08/19 05:41:55;;;;;;;10.30;9.30;;;;;19.50;97094.00;;;;5134308;27;20274;-70
2023/08/19 05:44:44;;;;;;;12.23;10.90;;;;;20.20;97089.00;;;;5131872;27;20234;-72
2023/08/19 05:47:33;;;;;;;11.83;10.60;;;;;20.20;97095.00;;;;5127027;27;20202;-71
2023/08/19 05:50:22;;;;;;;11.63;10.47;;;;;20.20;97094.00;;;;5128821;27;20672;-72
2023/08/19 05:53:11;;;;;;;14.60;11.27;;;;;20.50;97096.00;;;;5133661;27;20718;-71
2023/08/19 05:56:02;;;;;;;12.10;10.90;;;;;20.90;97102.00;;;;5123089;27;20226;-73
2023/08/19 05:58:51;;;;;;;17.77;11.33;;;;;20.90;97097.00;;;;5119648;27;20661;-72
2023/08/19 06:01:40;;;;;;;16.43;12.23;;;;;21.10;97096.00;;;;5125774;27;20210;-72
2023/08/19 06:04:29;;;;;;;14.67;12.30;;;;;21.70;97102.00;;;;5116811;27;20233;-72
2023/08/19 06:07:25;;;;;;;16.77;12.03;;;;;20.90;97098.00;;;;5116294;27;20191;-71
2023/08/19 06:10:16;;;;;;;10.50;9.40;;;;;20.80;97102.00;;;;5115668;28;20206;-71
2023/08/19 06:13:07;;;;;;;12.43;10.83;;;;;21.10;97108.00;;;;5120369;28;20677;-70
2023/08/19 06:15:56;;;;;;;11.87;10.20;;;;;21.30;97111.00;;;;5105322;27;20195;-71
2023/08/19 06:18:45;;;;;;;11.70;10.53;;;;;21.50;97112.00;;;;5113145;27;20207;-70
2023/08/19 06:21:34;;;;;;;12.37;11.07;;;;;21.80;97110.00;;;;5106032;27;20211;-71
2023/08/19 06:24:23;;;;;;;14.23;11.13;;;;;21.90;97115.00;;;;5108736;28;20230;-70
2023/08/19 06:27:12;;;;;;;14.77;11.80;;;;;22.00;97118.00;;;;5108724;27;20213;-71
2023/08/19 06:30:03;;;;;;;13.27;10.60;;;;;22.30;97135.00;;;;5105997;27;20569;-70
2023/08/19 06:32:53;;;;;;;18.87;11.70;;;;;22.30;97136.00;;;;5104164;27;20824;-71
2023/08/19 06:35:42;;;;;;;14.53;11.57;;;;;22.50;97131.00;;;;5106987;27;20194;-71
2023/08/19 06:38:32;;;;;;;12.50;11.07;;;;;22.80;97133.00;;;;5113689;27;20215;-73
2023/08/19 06:41:22;;;;;;;13.20;10.57;;;;;23.10;97134.00;;;;5104309;27;20228;-71
2023/08/19 06:44:11;;;;;;;14.73;13.07;;;;;23.40;97137.00;;;;5107317;27;20219;-74
2023/08/19 06:47:03;;;;;;;15.30;10.67;;;;;23.80;97137.00;;;;5111541;27;20595;-71
2023/08/19 06:49:52;;;;;;;14.07;10.90;;;;;23.80;97134.00;;;;5108093;27;20200;-72
2023/08/19 06:52:42;;;;;;;18.73;13.10;;;;;23.70;97135.00;;;;5113853;27;20609;-72
2023/08/19 06:55:33;;;;;;;13.50;11.77;;;;;23.70;97133.00;;;;5114689;27;20203;-71
2023/08/19 06:58:28;;;;;;;13.13;11.80;;;;;23.80;97131.00;;;;5100145;27;20571;-72
2023/08/19 07:01:26;;;;;;;17.07;13.00;;;;;24.00;97128.00;;;;5108205;27;20206;-72
2023/08/19 07:04:18;;;;;;;18.30;13.53;;;;;24.40;97126.00;;;;5106799;27;20226;-71
2023/08/19 07:07:08;;;;;;;15.17;11.83;;;;;24.60;97125.00;;;;5105735;27;20575;-72
2023/08/19 07:09:57;;;;;;;12.40;11.10;;;;;24.70;97133.00;;;;5126806;27;20221;-70
2023/08/19 07:12:47;;;;;;;17.00;12.20;;;;;24.70;97128.00;;;;5114372;27;20687;-70
2023/08/19 07:15:37;;;;;;;13.53;12.07;;;;;25.10;97132.00;;;;5126999;27;20200;-71
2023/08/19 07:18:28;;;;;;;12.57;10.27;;;;;25.30;97135.00;;;;5124372;27;20556;-73
2023/08/19 07:21:20;;;;;;;15.33;12.23;;;;;25.80;97138.00;;;;5123205;27;20202;-70
2023/08/19 07:24:11;;;;;;;13.47;10.80;;;;;26.00;97135.00;;;;5122299;27;20222;-70
2023/08/19 07:27:03;;;;;;;14.50;10.63;;;;;26.10;97132.00;;;;5118433;27;20207;-70
2023/08/19 07:29:54;;;;;;;13.03;11.27;;;;;26.30;97127.00;;;;5124078;27;20696;-71
2023/08/19 07:32:43;;;;;;;15.10;11.27;;;;;26.40;97139.00;;;;5119398;27;20198;-71
2023/08/19 07:35:33;;;;;;;14.30;9.47;;;;;26.50;97136.00;;;;5121076;27;20193;-72
2023/08/19 07:38:24;;;;;;;12.77;11.17;;;;;26.60;97143.00;;;;5110009;27;20204;-71
2023/08/19 07:41:14;;;;;;;13.97;10.37;;;;;26.50;97154.00;;;;5117545;27;20256;-71
2023/08/19 07:44:03;;;;;;;10.43;9.33;;;;;26.70;97155.00;;;;5133538;27;20240;-70
2023/08/19 07:46:52;;;;;;;13.70;9.53;;;;;26.70;97146.00;;;;5127501;27;20202;-71
2023/08/19 07:49:41;;;;;;;9.17;8.27;;;;;27.00;97149.00;;;;5128164;27;20196;-71
2023/08/19 07:52:30;;;;;;;10.30;9.30;;;;;27.00;97152.00;;;;5119950;27;20573;-71
2023/08/19 07:55:21;;;;;;;10.40;9.13;;;;;27.00;97154.00;;;;5127697;27;20202;-71
2023/08/19 07:58:10;;;;;;;13.37;8.73;;;;;27.40;97155.00;;;;5129095;27;20215;-71
2023/08/19 08:00:59;;;;;;;10.23;8.80;;;;;27.50;97146.00;;;;5125948;27;20200;-71
2023/08/19 08:03:48;;;;;;;10.50;9.40;;;;;27.80;97154.00;;;;5097035;28;20228;-71
2023/08/19 08:06:37;;;;;;;10.30;9.30;;;;;27.80;97150.00;;;;5098830;27;20215;-71
2023/08/19 08:09:26;;;;;;;9.53;8.33;;;;;27.90;97165.00;;;;5106843;27;20207;-71
2023/08/19 08:12:17;;;;;;;10.23;9.23;;;;;28.20;97162.00;;;;5113043;27;20585;-71
2023/08/19 08:15:08;;;;;;;10.27;7.83;;;25.10;99.90;28.00;97162.00;;;;5113078;27;20607;-71
2023/08/19 08:17:57;;;;;;;11.30;9.43;;;25.10;99.90;28.20;97168.00;;;;5102656;27;20686;-69
2023/08/19 08:20:46;;;;;;;11.63;9.33;;;25.10;99.90;28.30;97176.00;;;;5116898;27;20230;-72
2023/08/19 08:23:35;;;;;;;11.83;9.00;;;25.30;99.90;28.40;97177.00;;;;5113800;27;20296;-72
2023/08/19 08:26:23;;;;;;;9.10;8.30;;;25.30;99.90;28.30;97176.00;;;;5114157;27;20224;-71
2023/08/19 08:29:14;;;;;;;8.80;7.90;;;25.40;99.90;28.10;97178.00;;;;5115023;27;20244;-73
2023/08/19 08:32:03;;;;;;;9.33;8.33;;;25.50;99.90;28.40;97171.00;;;;5114827;27;20209;-72
2023/08/19 08:34:52;;;;;;;9.20;8.17;;;25.50;99.90;28.40;97184.00;;;;5115300;27;20241;-72
2023/08/19 08:37:40;;;;;;;9.27;7.90;;;25.60;99.90;28.70;97182.00;;;;5112494;27;20199;-69
2023/08/19 08:40:31;;;;;;;10.00;9.00;;;25.60;99.90;28.80;97178.00;;;;5107525;27;20198;-71
2023/08/19 08:43:20;;;;;;;11.60;8.37;;;25.70;99.90;29.10;97182.00;;;;5108488;27;20235;-70
2023/08/19 08:46:11;;;;;;;11.43;9.10;;;25.80;99.90;29.40;97180.00;;;;5111627;27;20230;-71
2023/08/19 08:49:00;;;;;;;9.97;8.97;;;26.00;99.90;29.60;97178.00;;;;5106791;27;20664;-71
2023/08/19 08:51:49;;;;;;;10.00;9.00;;;26.20;99.90;29.60;97180.00;;;;5103834;27;20208;-71
2023/08/19 08:54:38;;;;;;;10.30;8.77;;;26.40;99.90;29.60;97175.00;;;;5098357;28;20233;-71
2023/08/19 08:57:27;;;;;;;8.73;7.50;;;26.60;99.90;29.60;97173.00;;;;5106436;28;20208;-74
2023/08/19 09:00:16;;;;;;;9.37;8.50;;;26.60;99.90;30.00;97176.00;;;;5111183;27;20202;-71
2023/08/19 09:03:08;;;;;;;9.07;8.27;;;26.80;99.90;30.20;97174.00;;;;5105483;28;20591;-71
2023/08/19 09:06:05;;;;;;;9.27;8.13;;;26.90;99.90;30.30;97173.00;;;;5083335;22;20239;-69
2023/08/19 09:08:59;;;;;;;10.17;8.63;;;27.10;99.90;30.00;97175.00;;;;5040199;28;20208;-69
2023/08/19 09:11:53;;;;;;;9.73;8.83;;;27.20;99.90;30.50;97179.00;;;;5039137;28;20674;-68
2023/08/19 09:14:44;;;;;;;11.00;9.27;;;27.30;99.90;30.80;97179.00;;;;5044885;28;20226;-68
2023/08/19 09:17:34;;;;;;;9.30;8.37;;;27.50;99.90;30.80;97179.00;;;;5032257;28;20203;-68
2023/08/19 09:20:25;;;;;;;9.87;8.47;;;27.60;99.90;30.70;97178.00;;;;5022832;28;20236;-68
2023/08/19 09:23:14;;;;;;;9.87;7.60;;;27.60;99.90;30.90;97183.00;;;;5022585;28;20209;-68
2023/08/19 09:26:03;;;;;;;9.43;8.53;;;27.70;99.90;31.20;97183.00;;;;5021462;28;20612;-68
2023/08/19 09:28:56;;;;;;;8.83;8.03;;;27.80;99.90;31.30;97183.00;;;;5024112;28;20234;-67
2023/08/19 09:31:45;;;;;;;8.40;7.50;;;28.00;99.90;31.70;97180.00;;;;5020344;28;20208;-68
2023/08/19 09:34:34;;;;;;;9.03;7.80;;;28.20;99.90;31.80;97182.00;;;;5026231;28;20585;-69
2023/08/19 09:37:25;;;;;;;7.78;6.95;;;28.40;99.90;31.80;97183.00;;;;5034851;28;20200;-69
2023/08/19 09:40:21;;;;;;;9.15;7.05;;;28.50;99.90;31.40;97176.00;;;;5036934;28;20220;-68
2023/08/19 09:43:10;;;;;;;7.88;7.07;;;28.50;99.90;32.00;97169.00;;;;5021069;28;20206;-68
2023/08/19 09:46:00;;;;;;;7.40;6.70;;;28.60;99.90;32.00;97163.00;;;;5030762;28;20744;-69
2023/08/19 09:48:55;;;;;;;7.32;6.65;;;28.70;99.90;32.30;97171.00;;;;5024136;28;20289;-69
2023/08/19 09:51:54;;;;;;;7.82;6.60;;;28.90;99.90;32.50;97173.00;;;;5028136;28;20577;-70
2023/08/19 09:54:52;;;;;;;6.50;6.00;;;29.00;99.90;32.80;97167.00;;;;5025979;28;20231;-71
2023/08/19 09:57:41;;;;;;;9.68;7.80;;;29.30;99.90;32.30;97168.00;;;;5027311;28;20558;-70
2023/08/19 10:00:30;;;;;;;6.68;6.05;;;29.30;99.90;32.60;97174.00;;;;5027677;28;20205;-71
2023/08/19 10:03:19;;;;;;;7.22;6.47;;;29.40;99.90;32.90;97171.00;;;;5026849;28;20215;-71
2023/08/19 10:06:09;;;;;;;8.40;6.43;;;29.50;99.90;33.00;97164.00;;;;5036345;28;20228;-70
2023/08/19 10:09:04;;;;;;;7.22;5.28;;;29.60;99.90;33.00;97162.00;;;;5047789;28;20200;-71
2023/08/19 10:11:55;;;;;;;5.78;5.28;;;29.70;99.90;33.20;97172.00;;;;5037864;28;20203;-71
2023/08/19 10:14:50;;;;;;;7.55;6.30;;;29.80;99.90;32.50;97167.00;;;;5047521;28;20226;-71
2023/08/19 10:17:42;;;;;;;6.63;5.97;;;29.90;99.90;32.40;97168.00;;;;5051315;28;20206;-71
2023/08/19 10:20:33;;;;;;;6.15;5.65;;;29.80;99.90;32.80;97166.00;;;;5049750;28;20579;-69
2023/08/19 10:23:23;;;;;;;8.13;7.40;;;29.70;99.90;32.80;97170.00;;;;5046326;28;20210;-69
2023/08/19 10:26:13;;;;;;;6.60;6.00;;;29.80;99.90;33.00;97165.00;;;;5048213;28;20234;-69
2023/08/19 10:29:08;;;;;;;8.13;6.20;;;29.80;99.90;33.60;97161.00;;;;5049320;28;20207;-69
2023/08/19 10:31:57;;;;;;;8.77;7.10;;;30.10;99.90;33.60;97157.00;;;;5044022;28;20432;-68
2023/08/19 10:34:47;;;;;;;7.07;6.32;;;30.20;99.90;33.50;97157.00;;;;5041010;28;20225;-70
2023/08/19 10:37:36;;;;;;;7.22;6.50;;;30.20;99.90;34.40;97154.00;;;;5050323;28;20502;-69
2023/08/19 10:40:26;;;;;;;6.05;5.55;;;30.50;99.90;34.50;97153.00;;;;5050958;28;20208;-69
2023/08/19 10:43:15;;;;;;;7.20;6.55;;;30.80;99.90;34.90;97149.00;;;;5051418;28;20247;-70
2023/08/19 10:46:06;;;;;;;8.27;6.30;;;31.10;99.90;34.90;97143.00;;;;5045332;28;20255;-69
2023/08/19 10:48:55;;;;;;;6.53;5.97;;;31.40;99.90;34.50;97144.00;;;;5047970;28;20210;-69
2023/08/19 10:51:53;;;;;;;7.05;6.25;;;31.30;98.90;33.40;97136.00;;;;5049620;28;20681;-69
2023/08/19 10:54:43;;;;;;;6.20;5.60;;;31.30;98.40;34.30;97136.00;;;;5049768;28;20235;-68
2023/08/19 10:57:33;;;;;;;7.35;6.65;;;31.20;99.00;34.90;97132.00;;;;5044357;28;20197;-69
2023/08/19 11:00:24;;;;;;;6.95;6.25;;;31.40;99.30;34.10;97133.00;;;;5049664;28;20210;-68
2023/08/19 11:03:14;;;;;;;7.40;6.75;;;31.50;98.30;35.00;97123.00;;;;5049851;28;20207;-67
2023/08/19 11:06:07;;;;;;;6.85;6.13;;;31.50;98.30;34.80;97130.00;;;;5049636;28;20230;-70
2023/08/19 11:09:00;;;;;;;6.93;6.22;;;31.60;98.00;34.20;97121.00;;;;5051341;28;20222;-68
2023/08/19 11:11:49;;;;;;;6.72;6.03;;;31.70;97.40;33.80;97120.00;;;;5045060;28;20212;-70
2023/08/19 11:14:38;;;;;;;10.00;8.30;;;31.40;97.70;34.20;97117.00;;;;5043542;28;20223;-71
2023/08/19 11:17:32;;;;;;;7.05;6.43;;;31.40;98.40;35.40;97124.00;;;;5043337;28;20198;-70
2023/08/19 11:20:29;;;;;;;7.60;6.90;;;31.60;98.90;35.20;97116.00;;;;5050270;28;20211;-69
2023/08/19 11:23:27;;;;;;;8.00;7.07;;;31.80;98.00;35.60;97112.00;;;;5051816;28;20211;-69
2023/08/19 11:26:17;;;;;;;7.85;7.15;;;32.00;97.70;36.10;97114.00;;;;5048840;28;20243;-68
2023/08/19 11:29:06;;;;;;;9.30;6.47;;;32.30;96.70;35.90;97110.00;;;;5046096;28;20286;-70
2023/08/19 11:31:57;;;;;;;6.53;6.00;;;32.50;96.30;36.50;97116.00;;;;5052790;28;20197;-69
2023/08/19 11:34:46;;;;;;;6.75;6.15;;;32.70;96.40;36.80;97120.00;;;;5050209;28;20282;-69
2023/08/19 11:37:36;;;;;;;7.70;7.10;;;33.00;95.90;37.20;97118.00;;;;5050508;28;20209;-69
2023/08/19 11:40:34;;;;;;;6.75;6.15;;;33.30;94.40;35.20;97118.00;;;;5048878;28;20204;-70
2023/08/19 11:43:25;;;;;;;6.72;6.10;;;33.20;91.10;36.70;97115.00;;;;5049115;28;20208;-70
2023/08/19 11:46:13;;;;;;;7.75;6.97;;;33.20;93.00;37.50;97116.00;;;;5051293;28;20224;-70
2023/08/19 11:49:06;;;;;;;8.02;6.97;;;33.40;94.20;37.20;97118.00;;;;5044541;28;20250;-69
2023/08/19 11:51:55;;;;;;;6.88;6.25;;;33.60;92.20;37.40;97110.00;;;;5051154;28;20208;-69
2023/08/19 11:54:59;;;;;;;7.65;6.93;;;33.70;92.90;37.00;97116.00;;;;5041068;28;20216;-71
2023/08/19 11:57:49;;;;;;;7.93;7.22;;;33.90;93.60;36.20;97108.00;;;;5044155;28;20671;-70
2023/08/19 12:00:37;;;;;;;7.22;6.53;;;33.70;92.00;37.60;97108.00;;;;5048603;28;20212;-69
2023/08/19 12:03:28;;;;;;;7.00;6.40;;;33.80;92.70;38.20;97098.00;;;;5049149;28;20213;-67
2023/08/19 12:06:17;;;;;;;7.35;6.63;;;34.10;92.50;38.10;97099.00;;;;5045010;28;20250;-68
2023/08/19 12:09:07;;;;;;;6.10;5.60;;;34.40;91.40;38.50;97099.00;;;;5047713;28;20208;-66
2023/08/19 12:12:02;;;;;;;5.95;5.45;;;34.50;90.30;38.60;97101.00;;;;5044535;28;20192;-69
2023/08/19 12:14:51;;;;;;;6.63;6.03;;;34.70;90.40;39.10;97098.00;;;;5045571;28;20236;-68
2023/08/19 12:17:40;;;;;;;5.88;5.38;;;35.00;90.60;39.00;97100.00;;;;5048826;28;20211;-67
2023/08/19 12:20:29;;;;;;;6.72;5.82;;;35.20;90.10;38.40;97104.00;;;;5047719;28;20208;-67
2023/08/19 12:23:18;;;;;;;6.38;5.78;;;35.40;88.00;38.90;97105.00;;;;5046095;28;20197;-70
2023/08/19 12:26:07;;;;;;;5.90;5.45;;;35.30;87.20;39.20;97098.00;;;;5049448;28;20235;-68
2023/08/19 12:28:57;;;;;;;6.25;5.65;;;35.40;87.70;38.60;97090.00;;;;5045602;28;20208;-68
2023/08/19 12:31:46;;;;;;;5.90;5.40;;;35.50;82.20;39.40;97097.00;;;;5045123;28;20197;-68
2023/08/19 12:34:35;;;;;;;6.00;5.50;;;35.60;83.70;39.20;97096.00;;;;5043851;28;20236;-68
2023/08/19 12:37:25;;;;;;;5.35;4.85;;;35.70;83.40;39.60;97094.00;;;;5039742;28;20561;-68
2023/08/19 12:40:14;;;;;;;6.63;6.13;;;35.80;83.30;38.60;97098.00;;;;5043597;28;20197;-68
2023/08/19 12:43:03;;;;;;;6.32;5.75;;;35.90;80.80;38.30;97095.00;;;;5042194;28;20212;-66
2023/08/19 12:45:54;;;;;;;5.65;5.18;;;35.90;80.40;37.50;97099.00;;;;5031912;28;20277;-68
2023/08/19 12:48:43;;;;;;;5.78;5.28;;;35.70;82.20;35.40;97087.00;;;;5042306;28;20224;-68
2023/08/19 12:51:32;;;;;;;6.78;6.07;;;34.90;79.60;35.90;97083.00;;;;5046911;28;20192;-67
2023/08/19 12:54:20;;;;;;;6.90;5.80;;;34.00;84.40;37.70;97085.00;;;;5045369;28;20211;-68
2023/08/19 12:57:09;;;;;;;6.93;6.28;;;34.00;85.50;36.40;97083.00;;;;5046993;28;20200;-68
2023/08/19 12:59:59;;;;;;;6.57;5.95;;;33.90;86.40;37.10;97084.00;;;;5043957;28;20660;-67
2023/08/19 14:02:20;;;;;;;5.32;4.82;;;35.10;81.10;39.60;97075.00;;;;5026970;28;20232;-68
2023/08/19 14:05:15;;;;;;;6.35;5.80;;;35.20;81.80;40.40;97072.00;;;;5036965;28;20227;-68
2023/08/19 14:08:04;;;;;;;5.82;5.38;;;35.70;81.20;40.90;97074.00;;;;5043719;28;20258;-68
2023/08/19 14:10:53;;;;;;;6.07;5.10;;;36.20;80.00;40.00;97080.00;;;;5045871;28;20694;-68
2023/08/19 14:13:42;;;;;;;6.25;5.60;;;36.60;78.00;40.10;97081.00;;;;5037563;28;20207;-68
2023/08/19 14:16:31;;;;;;;5.68;5.18;;;36.70;76.20;40.40;97137.00;;;;5043890;28;20216;-68
2023/08/19 14:19:21;;;;;;;6.47;5.97;;;36.80;75.60;39.20;97099.00;;;;5044937;28;20207;-69
2023/08/19 14:22:10;;;;;;;4.97;4.45;;;36.50;74.30;40.10;97083.00;;;;5042173;28;20212;-68
2023/08/19 14:24:59;;;;;;;6.55;5.93;;;36.60;76.10;40.30;97079.00;;;;5039949;28;20604;-68